sensor_id;sensor_type;location;lat;lon;timestamp;pressure;altitude;pressure_sealevel;temperature;humidity
62354;BME280;48391;49.184;2.418;2022-12-07T08:39:27;101737.13;;;2.17;100.00
62354;BME280;48391;49.184;2.418;2022-12-07T08:41:53;101727.03;;;2.69;100.00
62354;BME280;48391;49.184;2.418;2022-12-07T08:44:19;101726.34;;;3.22;100.00
62354;BME280;48391;49.184;2.418;2022-12-07T08:46:50;101711.59;;;3.56;100.00
62354;BME280;48391;49.184;2.418;2022-12-07T08:49:33;101722.13;;;3.56;100.00
62354;BME280;48391;49.184;2.418;2022-12-07T08:52:04;101718.09;;;3.48;100.00
62354;BME280;48391;49.184;2.418;2022-12-07T08:54:30;101717.59;;;3.59;100.00
62354;BME280;48391;49.184;2.418;2022-12-07T08:56:59;101723.91;;;3.74;100.00
62354;BME280;48391;49.184;2.418;2022-12-07T08:59:25;101718.69;;;3.91;100.00
62354;BME280;48391;49.184;2.418;2022-12-07T09:01:52;101723.22;;;3.52;100.00
62354;BME280;48391;49.184;2.418;2022-12-07T09:04:18;101722.00;;;3.77;100.00
62354;BME280;48391;49.184;2.418;2022-12-07T09:06:44;101725.06;;;3.49;100.00
62354;BME280;48391;49.184;2.418;2022-12-07T09:16:24;101748.09;;;2.27;100.00
62354;BME280;48391;49.184;2.418;2022-12-07T09:18:51;101740.06;;;2.51;100.00
62354;BME280;48391;49.184;2.418;2022-12-07T09:21:17;101732.03;;;2.75;100.00
62354;BME280;48391;49.184;2.418;2022-12-07T09:23:43;101732.06;;;2.93;100.00
62354;BME280;48391;49.184;2.418;2022-12-07T09:26:10;101728.81;;;3.07;100.00
62354;BME280;48391;49.184;2.418;2022-12-07T09:28:36;101731.81;;;2.99;100.00
62354;BME280;48391;49.184;2.418;2022-12-07T09:31:03;101731.63;;;3.22;100.00
62354;BME280;48391;49.184;2.418;2022-12-07T09:33:30;101727.47;;;3.35;100.00
62354;BME280;48391;49.184;2.418;2022-12-07T09:35:56;101732.13;;;3.30;100.00
62354;BME280;48391;49.184;2.418;2022-12-07T09:40:52;101728.75;;;3.64;100.00
62354;BME280;48391;49.184;2.418;2022-12-07T09:43:24;101735.53;;;3.70;100.00
62354;BME280;48391;49.184;2.418;2022-12-07T09:45:55;101736.09;;;3.58;100.00
62354;BME280;48391;49.184;2.418;2022-12-07T09:48:31;101735.63;;;3.31;100.00
62354;BME280;48391;49.184;2.418;2022-12-07T09:50:59;101732.69;;;3.56;100.00
62354;BME280;48391;49.184;2.418;2022-12-07T09:53:30;101729.25;;;3.72;100.00
62354;BME280;48391;49.184;2.418;2022-12-07T09:55:59;101730.53;;;3.82;100.00
62354;BME280;48391;49.184;2.418;2022-12-07T09:58:28;101735.50;;;3.88;100.00
62354;BME280;48391;49.184;2.418;2022-12-07T10:01:19;101722.94;;;3.93;100.00
62354;BME280;48391;49.184;2.418;2022-12-07T10:03:51;101725.28;;;3.99;100.00
62354;BME280;48391;49.184;2.418;2022-12-07T10:06:18;101715.81;;;3.95;100.00
62354;BME280;48391;49.184;2.418;2022-12-07T10:08:44;101724.16;;;4.22;100.00
62354;BME280;48391;49.184;2.418;2022-12-07T10:11:11;101727.78;;;4.19;100.00
62354;BME280;48391;49.184;2.418;2022-12-07T10:13:39;101720.47;;;4.43;100.00
62354;BME280;48391;49.184;2.418;2022-12-07T10:16:07;101725.28;;;4.35;100.00
62354;BME280;48391;49.184;2.418;2022-12-07T10:18:54;101710.34;;;4.68;100.00
62354;BME280;48391;49.184;2.418;2022-12-07T10:21:22;101713.53;;;4.75;100.00
62354;BME280;48391;49.184;2.418;2022-12-07T10:24:13;101712.13;;;4.85;nan
62354;BME280;48391;49.184;2.418;2022-12-07T10:29:39;101700.16;;;4.95;100.00
62354;BME280;48391;49.184;2.418;2022-12-07T10:34:37;101697.91;;;4.87;100.00
62354;BME280;48391;49.184;2.418;2022-12-07T10:37:23;101689.53;;;5.28;100.00
62354;BME280;48391;49.184;2.418;2022-12-07T10:39:56;101687.94;;;5.56;100.00
62354;BME280;48391;49.184;2.418;2022-12-07T10:42:28;101680.88;;;5.57;100.00
62354;BME280;48391;49.184;2.418;2022-12-07T10:45:16;101680.44;;;5.80;100.00
62354;BME280;48391;49.184;2.418;2022-12-07T10:48:10;101678.38;;;5.69;100.00
62354;BME280;48391;49.184;2.418;2022-12-07T10:53:31;101647.44;;;6.60;nan
62354;BME280;48391;49.184;2.418;2022-12-07T11:02:31;61489.81;;;-142.61;100.00
62354;BME280;48391;49.184;2.418;2022-12-07T11:10:26;61489.81;;;-142.61;100.00
62354;BME280;48391;49.184;2.418;2022-12-07T11:13:34;61489.81;;;-142.61;100.00
62354;BME280;48391;49.184;2.418;2022-12-07T11:16:33;61489.81;;;-142.61;100.00
62354;BME280;48391;49.184;2.418;2022-12-07T11:36:54;61489.81;;;-142.61;100.00
62354;BME280;48391;49.184;2.418;2022-12-07T11:40:03;61489.81;;;-142.61;100.00
62354;BME280;48391;49.184;2.418;2022-12-07T11:43:34;61489.81;;;-142.61;100.00
62354;BME280;48391;49.184;2.418;2022-12-07T11:46:06;61489.81;;;-142.61;100.00
62354;BME280;48391;49.184;2.418;2022-12-07T11:52:13;61489.81;;;-142.61;100.00
62354;BME280;48391;49.184;2.418;2022-12-07T11:58:14;61489.81;;;-142.61;100.00
62354;BME280;48391;49.184;2.418;2022-12-07T12:00:55;61489.81;;;-142.61;100.00
62354;BME280;48391;49.184;2.418;2022-12-07T12:06:31;101551.25;;;8.07;nan
62354;BME280;48391;49.184;2.418;2022-12-07T12:19:59;101543.13;;;8.97;100.00
62354;BME280;48391;49.184;2.418;2022-12-07T12:22:45;101533.53;;;9.07;100.00
62354;BME280;48391;49.184;2.418;2022-12-07T12:25:37;101536.72;;;8.76;100.00
62354;BME280;48391;49.184;2.418;2022-12-07T12:28:05;61489.81;;;-142.61;100.00
62354;BME280;48391;49.184;2.418;2022-12-07T12:30:39;61489.81;;;-142.61;100.00
62354;BME280;48391;49.184;2.418;2022-12-07T12:33:27;61489.81;;;-142.61;100.00
62354;BME280;48391;49.184;2.418;2022-12-07T12:38:52;61489.81;;;-142.61;100.00
62354;BME280;48391;49.184;2.418;2022-12-07T12:50:38;61489.81;;;-142.61;100.00
62354;BME280;48391;49.184;2.418;2022-12-07T13:00:47;61489.81;;;-142.61;100.00
62354;BME280;48391;49.184;2.418;2022-12-07T13:03:28;61489.81;;;-142.61;100.00
62354;BME280;48391;49.184;2.418;2022-12-07T13:08:53;61489.81;;;-142.61;100.00
62354;BME280;48391;49.184;2.418;2022-12-07T13:11:31;61489.81;;;-142.61;100.00
62354;BME280;48391;49.184;2.418;2022-12-07T13:17:03;61489.81;;;-142.61;100.00
62354;BME280;48391;49.184;2.418;2022-12-07T13:25:31;61489.81;;;-142.61;100.00
62354;BME280;48391;49.184;2.418;2022-12-07T13:28:16;61489.81;;;-142.61;100.00
62354;BME280;48391;49.184;2.418;2022-12-07T13:30:59;61489.81;;;-142.61;100.00
62354;BME280;48391;49.184;2.418;2022-12-07T13:33:28;61489.81;;;-142.61;100.00
62354;BME280;48391;49.184;2.418;2022-12-07T13:35:55;61489.81;;;-142.61;100.00
62354;BME280;48391;49.184;2.418;2022-12-07T13:38:29;61489.81;;;-142.61;100.00
62354;BME280;48391;49.184;2.418;2022-12-07T13:41:13;61489.81;;;-142.61;100.00
62354;BME280;48391;49.184;2.418;2022-12-07T13:43:59;61489.81;;;-142.61;100.00
62354;BME280;48391;49.184;2.418;2022-12-07T13:46:44;61489.81;;;-142.61;100.00
62354;BME280;48391;49.184;2.418;2022-12-07T13:49:46;61489.81;;;-142.61;100.00
62354;BME280;48391;49.184;2.418;2022-12-07T13:52:26;61489.81;;;-142.61;100.00
62354;BME280;48391;49.184;2.418;2022-12-07T13:57:33;61489.81;;;-142.61;100.00
62354;BME280;48391;49.184;2.418;2022-12-07T14:00:01;61489.81;;;-142.61;100.00
62354;BME280;48391;49.184;2.418;2022-12-07T14:02:31;61489.81;;;-142.61;100.00
62354;BME280;48391;49.184;2.418;2022-12-07T14:05:16;61489.81;;;-142.61;100.00
62354;BME280;48391;49.184;2.418;2022-12-07T14:08:01;61489.81;;;-142.61;100.00
62354;BME280;48391;49.184;2.418;2022-12-07T14:11:01;61489.81;;;-142.61;100.00
62354;BME280;48391;49.184;2.418;2022-12-07T14:15:56;61489.81;;;-142.61;100.00
62354;BME280;48391;49.184;2.418;2022-12-07T14:18:38;61489.81;;;-142.61;100.00
62354;BME280;48391;49.184;2.418;2022-12-07T14:21:27;61489.81;;;-142.61;100.00
62354;BME280;48391;49.184;2.418;2022-12-07T14:24:11;61489.81;;;-142.61;100.00
62354;BME280;48391;49.184;2.418;2022-12-07T14:26:39;61489.81;;;-142.61;100.00
62354;BME280;48391;49.184;2.418;2022-12-07T14:29:32;61489.81;;;-142.61;100.00
62354;BME280;48391;49.184;2.418;2022-12-07T14:34:41;61489.81;;;-142.61;100.00
62354;BME280;48391;49.184;2.418;2022-12-07T14:37:09;61489.81;;;-142.61;100.00
62354;BME280;48391;49.184;2.418;2022-12-07T14:39:36;61489.81;;;-142.61;100.00
62354;BME280;48391;49.184;2.418;2022-12-07T14:42:02;61489.81;;;-142.61;100.00
62354;BME280;48391;49.184;2.418;2022-12-07T14:44:28;61489.81;;;-142.61;100.00
62354;BME280;48391;49.184;2.418;2022-12-07T14:46:55;61489.81;;;-142.61;100.00
62354;BME280;48391;49.184;2.418;2022-12-07T14:49:21;61489.81;;;-142.61;100.00
62354;BME280;48391;49.184;2.418;2022-12-07T14:51:47;61489.81;;;-142.61;100.00
62354;BME280;48391;49.184;2.418;2022-12-07T14:54:19;61489.81;;;-142.61;100.00
62354;BME280;48391;49.184;2.418;2022-12-07T14:56:46;61489.81;;;-142.61;100.00
62354;BME280;48391;49.184;2.418;2022-12-07T14:59:16;61489.81;;;-142.61;100.00
62354;BME280;48391;49.184;2.418;2022-12-07T15:01:43;61489.81;;;-142.61;100.00
62354;BME280;48391;49.184;2.418;2022-12-07T15:04:10;61489.81;;;-142.61;100.00
62354;BME280;48391;49.184;2.418;2022-12-07T15:06:37;61489.81;;;-142.61;100.00
62354;BME280;48391;49.184;2.418;2022-12-07T15:09:03;61489.81;;;-142.61;100.00
62354;BME280;48391;49.184;2.418;2022-12-07T15:11:29;61489.81;;;-142.61;100.00
62354;BME280;48391;49.184;2.418;2022-12-07T15:13:56;61489.81;;;-142.61;100.00
62354;BME280;48391;49.184;2.418;2022-12-07T15:16:35;61489.81;;;-142.61;100.00
62354;BME280;48391;49.184;2.418;2022-12-07T15:19:01;61489.81;;;-142.61;100.00
62354;BME280;48391;49.184;2.418;2022-12-07T15:21:28;61489.81;;;-142.61;100.00
62354;BME280;48391;49.184;2.418;2022-12-07T15:23:54;61489.81;;;-142.61;100.00
62354;BME280;48391;49.184;2.418;2022-12-07T15:26:20;61489.81;;;-142.61;100.00
62354;BME280;48391;49.184;2.418;2022-12-07T15:28:46;61489.81;;;-142.61;100.00
62354;BME280;48391;49.184;2.418;2022-12-07T15:31:14;61489.81;;;-142.61;100.00
62354;BME280;48391;49.184;2.418;2022-12-07T15:33:40;61489.81;;;-142.61;100.00
62354;BME280;48391;49.184;2.418;2022-12-07T15:36:07;61489.81;;;-142.61;100.00
62354;BME280;48391;49.184;2.418;2022-12-07T15:38:34;61489.81;;;-142.61;100.00
62354;BME280;48391;49.184;2.418;2022-12-07T15:41:00;61489.81;;;-142.61;100.00
62354;BME280;48391;49.184;2.418;2022-12-07T15:43:27;61489.81;;;-142.61;100.00
62354;BME280;48391;49.184;2.418;2022-12-07T15:46:11;61489.81;;;-142.61;100.00
62354;BME280;48391;49.184;2.418;2022-12-07T15:48:38;61489.81;;;-142.61;100.00
62354;BME280;48391;49.184;2.418;2022-12-07T15:51:08;61489.81;;;-142.61;100.00
62354;BME280;48391;49.184;2.418;2022-12-07T15:53:34;61489.81;;;-142.61;100.00
62354;BME280;48391;49.184;2.418;2022-12-07T15:56:01;61489.81;;;-142.61;100.00
62354;BME280;48391;49.184;2.418;2022-12-07T15:58:32;61489.81;;;-142.61;100.00
62354;BME280;48391;49.184;2.418;2022-12-07T16:00:58;61489.81;;;-142.61;100.00
62354;BME280;48391;49.184;2.418;2022-12-07T16:03:24;61489.81;;;-142.61;100.00
62354;BME280;48391;49.184;2.418;2022-12-07T16:05:51;61489.81;;;-142.61;100.00
62354;BME280;48391;49.184;2.418;2022-12-07T16:08:18;61489.81;;;-142.61;100.00
62354;BME280;48391;49.184;2.418;2022-12-07T16:10:44;61489.81;;;-142.61;100.00
62354;BME280;48391;49.184;2.418;2022-12-07T16:13:11;61489.81;;;-142.61;100.00
62354;BME280;48391;49.184;2.418;2022-12-07T16:15:40;61489.81;;;-142.61;100.00
62354;BME280;48391;49.184;2.418;2022-12-07T16:18:07;61489.81;;;-142.61;100.00
62354;BME280;48391;49.184;2.418;2022-12-07T16:20:34;61489.81;;;-142.61;100.00
62354;BME280;48391;49.184;2.418;2022-12-07T16:23:00;61489.81;;;-142.61;100.00
62354;BME280;48391;49.184;2.418;2022-12-07T16:25:26;61489.81;;;-142.61;100.00
62354;BME280;48391;49.184;2.418;2022-12-07T16:27:53;61489.81;;;-142.61;100.00
62354;BME280;48391;49.184;2.418;2022-12-07T16:30:19;61489.81;;;-142.61;100.00
62354;BME280;48391;49.184;2.418;2022-12-07T16:32:45;61489.81;;;-142.61;100.00
62354;BME280;48391;49.184;2.418;2022-12-07T16:35:12;61489.81;;;-142.61;100.00
62354;BME280;48391;49.184;2.418;2022-12-07T16:37:41;61489.81;;;-142.61;100.00
62354;BME280;48391;49.184;2.418;2022-12-07T16:40:08;61489.81;;;-142.61;100.00
62354;BME280;48391;49.184;2.418;2022-12-07T16:42:35;61489.81;;;-142.61;100.00
62354;BME280;48391;49.184;2.418;2022-12-07T16:45:02;61489.81;;;-142.61;100.00
62354;BME280;48391;49.184;2.418;2022-12-07T16:47:28;61489.81;;;-142.61;100.00
62354;BME280;48391;49.184;2.418;2022-12-07T16:49:54;61489.81;;;-142.61;100.00
62354;BME280;48391;49.184;2.418;2022-12-07T16:52:21;61489.81;;;-142.61;100.00
62354;BME280;48391;49.184;2.418;2022-12-07T16:54:48;61489.81;;;-142.61;100.00
62354;BME280;48391;49.184;2.418;2022-12-07T16:57:15;61489.81;;;-142.61;100.00
62354;BME280;48391;49.184;2.418;2022-12-07T16:59:41;61489.81;;;-142.61;100.00
62354;BME280;48391;49.184;2.418;2022-12-07T17:02:10;61489.81;;;-142.61;100.00
62354;BME280;48391;49.184;2.418;2022-12-07T17:04:37;61489.81;;;-142.61;100.00
62354;BME280;48391;49.184;2.418;2022-12-07T17:07:05;61489.81;;;-142.61;100.00
62354;BME280;48391;49.184;2.418;2022-12-07T17:09:31;61489.81;;;-142.61;100.00
62354;BME280;48391;49.184;2.418;2022-12-07T17:11:58;61489.81;;;-142.61;100.00
62354;BME280;48391;49.184;2.418;2022-12-07T17:14:24;61489.81;;;-142.61;100.00
62354;BME280;48391;49.184;2.418;2022-12-07T17:17:08;61489.81;;;-142.61;100.00
62354;BME280;48391;49.184;2.418;2022-12-07T17:19:35;61489.81;;;-142.61;100.00
62354;BME280;48391;49.184;2.418;2022-12-07T17:22:01;61489.81;;;-142.61;100.00
62354;BME280;48391;49.184;2.418;2022-12-07T17:24:27;61489.81;;;-142.61;100.00
62354;BME280;48391;49.184;2.418;2022-12-07T17:26:53;61489.81;;;-142.61;100.00
62354;BME280;48391;49.184;2.418;2022-12-07T17:29:19;61489.81;;;-142.61;100.00
62354;BME280;48391;49.184;2.418;2022-12-07T17:31:47;61489.81;;;-142.61;100.00
62354;BME280;48391;49.184;2.418;2022-12-07T17:34:14;61489.81;;;-142.61;100.00
62354;BME280;48391;49.184;2.418;2022-12-07T17:36:41;61489.81;;;-142.61;100.00
62354;BME280;48391;49.184;2.418;2022-12-07T17:39:13;61489.81;;;-142.61;100.00
62354;BME280;48391;49.184;2.418;2022-12-07T17:41:40;61489.81;;;-142.61;100.00
62354;BME280;48391;49.184;2.418;2022-12-07T17:44:25;61489.81;;;-142.61;100.00
62354;BME280;48391;49.184;2.418;2022-12-07T17:46:53;61489.81;;;-142.61;100.00
62354;BME280;48391;49.184;2.418;2022-12-07T17:49:24;61489.81;;;-142.61;100.00
62354;BME280;48391;49.184;2.418;2022-12-07T17:51:51;61489.81;;;-142.61;100.00
62354;BME280;48391;49.184;2.418;2022-12-07T17:54:35;61489.81;;;-142.61;100.00
62354;BME280;48391;49.184;2.418;2022-12-07T17:57:02;61489.81;;;-142.61;100.00
62354;BME280;48391;49.184;2.418;2022-12-07T17:59:28;61489.81;;;-142.61;100.00
62354;BME280;48391;49.184;2.418;2022-12-07T18:01:54;61489.81;;;-142.61;100.00
62354;BME280;48391;49.184;2.418;2022-12-07T18:04:20;61489.81;;;-142.61;100.00
62354;BME280;48391;49.184;2.418;2022-12-07T18:06:47;61489.81;;;-142.61;100.00
62354;BME280;48391;49.184;2.418;2022-12-07T18:09:13;61489.81;;;-142.61;100.00
62354;BME280;48391;49.184;2.418;2022-12-07T18:11:39;61489.81;;;-142.61;100.00
62354;BME280;48391;49.184;2.418;2022-12-07T18:14:06;61489.81;;;-142.61;100.00
62354;BME280;48391;49.184;2.418;2022-12-07T18:16:33;61489.81;;;-142.61;100.00
62354;BME280;48391;49.184;2.418;2022-12-07T18:19:05;61489.81;;;-142.61;100.00
62354;BME280;48391;49.184;2.418;2022-12-07T18:21:33;61489.81;;;-142.61;100.00
62354;BME280;48391;49.184;2.418;2022-12-07T18:24:01;61489.81;;;-142.61;100.00
62354;BME280;48391;49.184;2.418;2022-12-07T18:26:30;61489.81;;;-142.61;100.00
62354;BME280;48391;49.184;2.418;2022-12-07T18:28:58;61489.81;;;-142.61;100.00
62354;BME280;48391;49.184;2.418;2022-12-07T18:31:25;61489.81;;;-142.61;100.00
62354;BME280;48391;49.184;2.418;2022-12-07T18:33:51;61489.81;;;-142.61;100.00
62354;BME280;48391;49.184;2.418;2022-12-07T18:36:21;61489.81;;;-142.61;100.00
62354;BME280;48391;49.184;2.418;2022-12-07T18:38:47;61489.81;;;-142.61;100.00
62354;BME280;48391;49.184;2.418;2022-12-07T18:41:15;61489.81;;;-142.61;100.00
62354;BME280;48391;49.184;2.418;2022-12-07T18:43:42;61489.81;;;-142.61;100.00
62354;BME280;48391;49.184;2.418;2022-12-07T18:46:16;61489.81;;;-142.61;100.00
62354;BME280;48391;49.184;2.418;2022-12-07T18:48:43;61489.81;;;-142.61;100.00
62354;BME280;48391;49.184;2.418;2022-12-07T18:51:15;61489.81;;;-142.61;100.00
62354;BME280;48391;49.184;2.418;2022-12-07T18:53:42;61489.81;;;-142.61;100.00
62354;BME280;48391;49.184;2.418;2022-12-07T18:56:19;61489.81;;;-142.61;100.00
62354;BME280;48391;49.184;2.418;2022-12-07T18:58:51;61489.81;;;-142.61;100.00
62354;BME280;48391;49.184;2.418;2022-12-07T19:01:36;61489.81;;;-142.61;100.00
62354;BME280;48391;49.184;2.418;2022-12-07T19:04:03;61489.81;;;-142.61;100.00
62354;BME280;48391;49.184;2.418;2022-12-07T19:06:30;61489.81;;;-142.61;100.00
62354;BME280;48391;49.184;2.418;2022-12-07T19:08:56;61489.81;;;-142.61;100.00
62354;BME280;48391;49.184;2.418;2022-12-07T19:11:25;61489.81;;;-142.61;100.00
62354;BME280;48391;49.184;2.418;2022-12-07T19:14:10;61489.81;;;-142.61;100.00
62354;BME280;48391;49.184;2.418;2022-12-07T19:16:37;61489.81;;;-142.61;100.00
62354;BME280;48391;49.184;2.418;2022-12-07T19:19:03;61489.81;;;-142.61;100.00
62354;BME280;48391;49.184;2.418;2022-12-07T19:21:29;61489.81;;;-142.61;100.00
62354;BME280;48391;49.184;2.418;2022-12-07T19:23:56;61489.81;;;-142.61;100.00
62354;BME280;48391;49.184;2.418;2022-12-07T19:26:23;61489.81;;;-142.61;100.00
62354;BME280;48391;49.184;2.418;2022-12-07T19:28:49;61489.81;;;-142.61;100.00
62354;BME280;48391;49.184;2.418;2022-12-07T19:31:16;61489.81;;;-142.61;100.00
62354;BME280;48391;49.184;2.418;2022-12-07T19:33:42;61489.81;;;-142.61;100.00
62354;BME280;48391;49.184;2.418;2022-12-07T19:36:08;61489.81;;;-142.61;100.00
62354;BME280;48391;49.184;2.418;2022-12-07T19:38:34;61489.81;;;-142.61;100.00
62354;BME280;48391;49.184;2.418;2022-12-07T19:41:19;61489.81;;;-142.61;100.00
62354;BME280;48391;49.184;2.418;2022-12-07T19:44:03;61489.81;;;-142.61;100.00
62354;BME280;48391;49.184;2.418;2022-12-07T19:46:30;61489.81;;;-142.61;100.00
62354;BME280;48391;49.184;2.418;2022-12-07T19:48:57;61489.81;;;-142.61;100.00
62354;BME280;48391;49.184;2.418;2022-12-07T19:51:23;61489.81;;;-142.61;100.00
62354;BME280;48391;49.184;2.418;2022-12-07T19:53:50;61489.81;;;-142.61;100.00
62354;BME280;48391;49.184;2.418;2022-12-07T19:56:18;61489.81;;;-142.61;100.00
62354;BME280;48391;49.184;2.418;2022-12-07T19:58:45;61489.81;;;-142.61;100.00
62354;BME280;48391;49.184;2.418;2022-12-07T20:01:12;61489.81;;;-142.61;100.00
62354;BME280;48391;49.184;2.418;2022-12-07T20:03:42;61489.81;;;-142.61;100.00
62354;BME280;48391;49.184;2.418;2022-12-07T20:06:24;61489.81;;;-142.61;100.00
62354;BME280;48391;49.184;2.418;2022-12-07T20:08:51;61489.81;;;-142.61;100.00
62354;BME280;48391;49.184;2.418;2022-12-07T20:11:18;61489.81;;;-142.61;100.00
62354;BME280;48391;49.184;2.418;2022-12-07T20:14:08;61489.81;;;-142.61;100.00
62354;BME280;48391;49.184;2.418;2022-12-07T20:16:35;61489.81;;;-142.61;100.00
62354;BME280;48391;49.184;2.418;2022-12-07T20:19:02;61489.81;;;-142.61;100.00
62354;BME280;48391;49.184;2.418;2022-12-07T20:21:28;61489.81;;;-142.61;100.00
62354;BME280;48391;49.184;2.418;2022-12-07T20:23:54;61489.81;;;-142.61;100.00
62354;BME280;48391;49.184;2.418;2022-12-07T20:26:20;61489.81;;;-142.61;100.00
62354;BME280;48391;49.184;2.418;2022-12-07T20:28:47;61489.81;;;-142.61;100.00
62354;BME280;48391;49.184;2.418;2022-12-07T20:31:14;61489.81;;;-142.61;100.00
62354;BME280;48391;49.184;2.418;2022-12-07T20:33:41;61489.81;;;-142.61;100.00
62354;BME280;48391;49.184;2.418;2022-12-07T20:36:11;61489.81;;;-142.61;100.00
62354;BME280;48391;49.184;2.418;2022-12-07T20:38:37;61489.81;;;-142.61;100.00
62354;BME280;48391;49.184;2.418;2022-12-07T20:41:06;61489.81;;;-142.61;100.00
62354;BME280;48391;49.184;2.418;2022-12-07T20:43:33;61489.81;;;-142.61;100.00
62354;BME280;48391;49.184;2.418;2022-12-07T20:46:00;61489.81;;;-142.61;100.00
62354;BME280;48391;49.184;2.418;2022-12-07T20:48:26;61489.81;;;-142.61;100.00
62354;BME280;48391;49.184;2.418;2022-12-07T20:50:53;61489.81;;;-142.61;100.00
62354;BME280;48391;49.184;2.418;2022-12-07T20:53:19;61489.81;;;-142.61;100.00
62354;BME280;48391;49.184;2.418;2022-12-07T20:55:45;61489.81;;;-142.61;100.00
62354;BME280;48391;49.184;2.418;2022-12-07T20:58:12;61489.81;;;-142.61;100.00
62354;BME280;48391;49.184;2.418;2022-12-07T21:00:38;61489.81;;;-142.61;100.00
62354;BME280;48391;49.184;2.418;2022-12-07T21:03:04;61489.81;;;-142.61;100.00
62354;BME280;48391;49.184;2.418;2022-12-07T21:05:31;61489.81;;;-142.61;100.00
62354;BME280;48391;49.184;2.418;2022-12-07T21:07:58;61489.81;;;-142.61;100.00
62354;BME280;48391;49.184;2.418;2022-12-07T21:10:24;61489.81;;;-142.61;100.00
62354;BME280;48391;49.184;2.418;2022-12-07T21:12:50;61489.81;;;-142.61;100.00
62354;BME280;48391;49.184;2.418;2022-12-07T21:15:16;61489.81;;;-142.61;100.00
62354;BME280;48391;49.184;2.418;2022-12-07T21:17:45;61489.81;;;-142.61;100.00
62354;BME280;48391;49.184;2.418;2022-12-07T21:20:11;61489.81;;;-142.61;100.00
62354;BME280;48391;49.184;2.418;2022-12-07T21:22:37;61489.81;;;-142.61;100.00
62354;BME280;48391;49.184;2.418;2022-12-07T21:25:04;61489.81;;;-142.61;100.00
62354;BME280;48391;49.184;2.418;2022-12-07T21:27:30;61489.81;;;-142.61;100.00
62354;BME280;48391;49.184;2.418;2022-12-07T21:29:56;61489.81;;;-142.61;100.00
62354;BME280;48391;49.184;2.418;2022-12-07T21:32:22;61489.81;;;-142.61;100.00
